Time;durP1;ratioP1;P1;durP2;ratioP2;P2;SDS_P1;SDS_P2;PMS_P1;PMS_P2;Temp;Humidity;BMP_temperature;BMP_pressure;BME280_temperature;BME280_humidity;BME280_pressure;Samples;Min_cycle;Max_cycle;Signal;HPM_P1;HPM_P2
2022/08/28 00:02:11;;;;;;;12.02;2.67;;;14.10;99.90;;;;;;5038849;28;20037;-67
2022/08/28 00:04:37;;;;;;;10.65;2.63;;;14.10;99.90;;;;;;5039061;28;20045;-67
2022/08/28 00:07:03;;;;;;;9.32;2.17;;;14.10;99.90;;;;;;5024296;28;20068;-67
2022/08/28 00:09:28;;;;;;;11.07;3.22;;;14.10;99.90;;;;;;5043449;28;20127;-67
2022/08/28 00:11:55;;;;;;;10.75;2.83;;;14.10;99.90;;;;;;5046362;28;20115;-67
2022/08/28 00:14:22;;;;;;;13.70;2.65;;;14.10;99.90;;;;;;5045118;28;20137;-67
2022/08/28 00:16:49;;;;;;;12.10;2.65;;;14.10;99.90;;;;;;5025590;28;20460;-67
2022/08/28 00:19:16;;;;;;;8.73;2.88;;;14.10;99.90;;;;;;5036978;28;20052;-67
2022/08/28 00:21:43;;;;;;;8.25;2.80;;;14.10;99.90;;;;;;5024705;28;20044;-67
2022/08/28 00:24:09;;;;;;;8.30;2.70;;;14.10;99.90;;;;;;5039469;28;20043;-67
2022/08/28 00:29:19;;;;;;;9.15;2.88;;;14.10;99.90;;;;;;5042424;28;20055;-67
2022/08/28 00:31:45;;;;;;;8.52;2.13;;;14.10;99.90;;;;;;5037852;28;20053;-67
2022/08/28 00:34:11;;;;;;;12.05;2.97;;;14.10;99.90;;;;;;5036949;28;20420;-67
2022/08/28 00:36:37;;;;;;;13.20;2.95;;;14.00;99.90;;;;;;5026161;28;20123;-67
2022/08/28 00:39:05;;;;;;;9.45;2.40;;;14.00;99.90;;;;;;5039735;28;20049;-67
2022/08/28 00:41:33;;;;;;;9.88;2.67;;;14.00;99.90;;;;;;5039163;28;20091;-67
2022/08/28 00:44:15;;;;;;;10.10;2.60;;;14.10;99.90;;;;;;5038610;28;20120;-67
2022/08/28 00:46:44;;;;;;;10.75;2.85;;;14.00;99.90;;;;;;5029687;28;20599;-67
2022/08/28 00:49:11;;;;;;;8.70;2.05;;;14.00;99.90;;;;;;5024337;28;20040;-67
2022/08/28 00:54:23;;;;;;;7.75;2.40;;;14.00;99.90;;;;;;5034545;28;20056;-67
2022/08/28 00:56:52;;;;;;;10.25;2.42;;;14.00;99.90;;;;;;5023747;28;20227;-66
2022/08/28 00:59:21;;;;;;;11.23;2.70;;;14.10;99.90;;;;;;5023700;28;20053;-67
2022/08/28 01:01:47;;;;;;;10.23;2.42;;;14.00;99.90;;;;;;5041431;28;20400;-67
2022/08/28 01:04:15;;;;;;;8.90;2.55;;;13.90;99.90;;;;;;5034432;28;20183;-67
2022/08/28 01:06:47;;;;;;;13.02;2.55;;;14.00;99.90;;;;;;5027072;28;20508;-68
2022/08/28 01:09:14;;;;;;;6.90;2.58;;;14.00;99.90;;;;;;5038484;28;20045;-68
2022/08/28 01:11:43;;;;;;;9.68;2.50;;;14.00;99.90;;;;;;5041434;28;20412;-67
2022/08/28 01:14:11;;;;;;;10.43;2.45;;;14.00;99.90;;;;;;5037804;28;20049;-67
2022/08/28 01:16:38;;;;;;;8.88;2.55;;;14.10;99.90;;;;;;5027985;28;20512;-68
2022/08/28 01:19:08;;;;;;;9.95;2.10;;;14.00;99.90;;;;;;5044434;28;20041;-67
2022/08/28 01:22:10;;;;;;;7.03;1.90;;;14.00;99.90;;;;;;5046178;28;20052;-66
2022/08/28 01:24:36;;;;;;;;;;;14.00;99.90;;;;;;5021923;28;20091;-67
2022/08/28 01:27:02;;;;;;;6.95;2.28;;;14.00;99.90;;;;;;5011682;28;19996;-67
2022/08/28 01:29:28;;;;;;;7.65;2.42;;;14.00;99.90;;;;;;5045434;28;20057;-67
2022/08/28 01:31:54;;;;;;;6.40;2.13;;;14.00;99.90;;;;;;5046682;28;20044;-67
2022/08/28 01:34:21;;;;;;;7.97;1.98;;;14.00;99.90;;;;;;5043690;28;20049;-67
2022/08/28 01:36:47;;;;;;;6.95;1.83;;;14.00;99.90;;;;;;5029249;28;20490;-68
2022/08/28 01:39:23;;;;;;;5.88;1.75;;;14.00;99.90;;;;;;5045714;28;20049;-67
2022/08/28 01:41:51;;;;;;;11.60;2.25;;;13.90;99.90;;;;;;5044285;28;20061;-67
2022/08/28 01:44:21;;;;;;;10.88;1.90;;;13.90;99.90;;;;;;5042398;28;20514;-67
2022/08/28 01:46:46;;;;;;;7.82;2.03;;;13.90;99.90;;;;;;5027334;28;20041;-68
2022/08/28 01:49:12;;;;;;;8.20;2.30;;;13.90;99.90;;;;;;5044148;28;20169;-68
2022/08/28 01:51:40;;;;;;;9.07;1.90;;;13.90;99.90;;;;;;5045289;28;20136;-67
2022/08/28 01:54:06;;;;;;;7.30;2.10;;;13.90;99.90;;;;;;5044888;28;20106;-67
2022/08/28 01:56:32;;;;;;;8.93;2.17;;;13.90;99.90;;;;;;5028572;28;20932;-68
2022/08/28 01:59:01;;;;;;;9.35;2.40;;;13.90;99.90;;;;;;5040876;28;20044;-67
2022/08/28 02:01:27;;;;;;;8.73;2.13;;;13.90;99.90;;;;;;5041736;28;20063;-67
2022/08/28 02:03:52;;;;;;;8.95;2.22;;;13.80;99.90;;;;;;5039900;28;20491;-67
2022/08/28 02:06:18;;;;;;;5.60;1.90;;;13.80;99.90;;;;;;5031380;28;20480;-68
2022/08/28 02:08:45;;;;;;;8.02;2.10;;;13.80;99.90;;;;;;5036905;28;20073;-68
2022/08/28 02:11:11;;;;;;;6.70;2.08;;;13.80;99.90;;;;;;5025543;28;20052;-67
2022/08/28 02:13:38;;;;;;;11.27;2.10;;;13.80;99.90;;;;;;5038242;28;20038;-68
2022/08/28 02:16:07;;;;;;;7.13;2.00;;;13.80;99.90;;;;;;5041216;28;20103;-68
2022/08/28 02:18:33;;;;;;;8.60;2.30;;;13.80;99.90;;;;;;5032199;28;20404;-67
2022/08/28 02:21:00;;;;;;;5.82;1.80;;;13.80;99.90;;;;;;5043115;28;20047;-67
2022/08/28 02:23:26;;;;;;;7.72;1.80;;;13.80;99.90;;;;;;5039134;28;20069;-67
2022/08/28 02:25:51;;;;;;;5.82;2.03;;;13.80;99.90;;;;;;5041735;28;20503;-68
2022/08/28 02:28:17;;;;;;;9.70;1.90;;;13.70;99.90;;;;;;5028223;28;20060;-68
2022/08/28 02:30:43;;;;;;;8.25;1.65;;;13.70;99.90;;;;;;5047076;28;20045;-67
2022/08/28 02:33:08;;;;;;;6.60;1.85;;;13.80;99.90;;;;;;5044661;28;20076;-67
2022/08/28 02:35:34;;;;;;;6.90;1.80;;;13.70;99.90;;;;;;5041025;28;20049;-67
2022/08/28 02:38:00;;;;;;;8.13;1.98;;;13.70;99.90;;;;;;5027165;28;20037;-68
2022/08/28 02:40:26;;;;;;;7.43;1.85;;;13.60;99.90;;;;;;5042135;28;20336;-67
2022/08/28 02:42:52;;;;;;;5.25;2.03;;;13.70;99.90;;;;;;5024958;28;20037;-67
2022/08/28 02:45:18;;;;;;;7.85;1.73;;;13.70;99.90;;;;;;5041040;28;20060;-68
2022/08/28 02:47:46;;;;;;;7.10;1.98;;;13.60;99.90;;;;;;5024226;28;20152;-68
2022/08/28 02:50:15;;;;;;;8.57;1.70;;;13.60;99.90;;;;;;5047306;28;20045;-67
2022/08/28 02:52:41;;;;;;;8.80;1.90;;;13.60;99.90;;;;;;5041487;28;20045;-67
2022/08/28 02:55:10;;;;;;;10.02;1.80;;;13.60;99.90;;;;;;5041787;28;20064;-67
2022/08/28 02:57:36;;;;;;;7.07;2.00;;;13.60;99.90;;;;;;5023744;28;20037;-67
2022/08/28 03:00:09;;;;;;;11.02;1.77;;;13.60;99.90;;;;;;5043378;28;20512;-67
2022/08/28 03:02:35;;;;;;;7.35;1.70;;;13.60;99.90;;;;;;5037850;28;20044;-67
2022/08/28 03:05:01;;;;;;;6.97;2.00;;;13.60;99.90;;;;;;5040237;28;20045;-68
2022/08/28 03:07:28;;;;;;;7.15;1.95;;;13.50;99.90;;;;;;5024715;28;20045;-67
2022/08/28 03:09:54;;;;;;;4.57;1.75;;;13.50;99.90;;;;;;5044155;28;20041;-68
2022/08/28 03:12:22;;;;;;;5.40;1.95;;;13.60;99.90;;;;;;5037889;28;20041;-67
2022/08/28 03:14:50;;;;;;;7.57;2.05;;;13.60;99.90;;;;;;5042496;28;20045;-67
2022/08/28 03:17:16;;;;;;;7.43;1.67;;;13.50;99.90;;;;;;5023122;28;20056;-67
2022/08/28 03:19:42;;;;;;;8.27;1.80;;;13.50;99.90;;;;;;5041155;28;20207;-67
2022/08/28 03:22:07;;;;;;;5.78;1.70;;;13.60;99.90;;;;;;5040678;28;20208;-67
2022/08/28 03:24:33;;;;;;;4.88;1.35;;;13.60;99.90;;;;;;5045448;28;20037;-67
2022/08/28 03:27:00;;;;;;;6.18;1.50;;;13.60;99.90;;;;;;5027497;28;20037;-67
2022/08/28 03:29:26;;;;;;;6.85;1.67;;;13.60;99.90;;;;;;5042587;28;20051;-67
2022/08/28 03:31:52;;;;;;;9.05;1.58;;;13.60;99.90;;;;;;5038244;28;20202;-68
2022/08/28 03:34:18;;;;;;;10.15;1.83;;;13.70;99.90;;;;;;5037613;28;20128;-68
2022/08/28 03:36:43;;;;;;;6.75;1.77;;;13.70;99.90;;;;;;5028667;28;20404;-68
2022/08/28 03:39:09;;;;;;;4.88;1.60;;;13.70;99.90;;;;;;5044089;28;20503;-67
2022/08/28 03:41:35;;;;;;;6.97;1.80;;;13.70;99.90;;;;;;5043667;28;20060;-67
2022/08/28 03:44:02;;;;;;;9.70;1.80;;;13.70;99.90;;;;;;5040029;28;20037;-68
2022/08/28 03:46:33;;;;;;;7.45;1.90;;;13.80;99.90;;;;;;5028424;28;20483;-67
2022/08/28 03:49:00;;;;;;;9.23;1.70;;;13.80;99.90;;;;;;5038579;28;20044;-67
2022/08/28 03:51:29;;;;;;;13.85;2.13;;;13.80;99.90;;;;;;5040225;28;20302;-67
2022/08/28 03:53:56;;;;;;;7.40;2.00;;;13.80;99.90;;;;;;5041402;28;20106;-68
2022/08/28 03:56:24;;;;;;;7.95;2.20;;;13.80;99.90;;;;;;5032172;28;20048;-68
2022/08/28 03:58:53;;;;;;;10.27;1.98;;;13.80;99.90;;;;;;5039129;28;20204;-67
2022/08/28 04:01:20;;;;;;;6.43;1.70;;;13.80;99.90;;;;;;5044257;28;20067;-67
2022/08/28 04:03:46;;;;;;;7.57;1.70;;;13.90;99.90;;;;;;5041485;28;20045;-68
2022/08/28 04:06:13;;;;;;;9.60;2.03;;;13.80;99.90;;;;;;5030009;28;20300;-68
2022/08/28 04:08:39;;;;;;;6.85;1.92;;;13.70;99.90;;;;;;5029200;28;20080;-67
2022/08/28 04:11:05;;;;;;;8.85;1.90;;;13.80;99.90;;;;;;5039600;28;20080;-67
2022/08/28 04:13:31;;;;;;;8.63;1.75;;;13.80;99.90;;;;;;5040133;28;20539;-68
2022/08/28 04:15:59;;;;;;;5.43;1.48;;;13.80;99.90;;;;;;5040287;28;20513;-67
2022/08/28 04:18:26;;;;;;;7.53;1.80;;;13.70;99.90;;;;;;5024681;28;20079;-68
2022/08/28 04:21:02;;;;;;;4.82;1.42;;;13.70;99.90;;;;;;5038812;28;20037;-67
2022/08/28 04:23:28;;;;;;;6.20;1.80;;;13.70;99.90;;;;;;5038379;28;20037;-67
2022/08/28 04:25:54;;;;;;;10.15;1.95;;;13.70;99.90;;;;;;5024444;28;20079;-68
2022/08/28 04:28:21;;;;;;;4.60;1.75;;;13.70;99.90;;;;;;5020646;28;20041;-67
2022/08/28 04:30:53;;;;;;;8.25;1.65;;;13.70;99.90;;;;;;5040199;28;20389;-67
2022/08/28 04:33:19;;;;;;;6.15;1.88;;;13.80;99.90;;;;;;5039074;28;20574;-67
2022/08/28 04:35:45;;;;;;;8.93;2.38;;;13.70;99.90;;;;;;5040531;28;20049;-68
2022/08/28 04:38:11;;;;;;;8.13;1.75;;;13.70;99.90;;;;;;5025744;28;20203;-68
2022/08/28 04:40:40;;;;;;;8.15;2.17;;;13.80;99.90;;;;;;5041091;28;20163;-68
2022/08/28 04:43:07;;;;;;;6.50;1.35;;;13.80;99.90;;;;;;5037501;28;20092;-69
2022/08/28 04:45:42;;;;;;;6.55;1.90;;;13.90;99.90;;;;;;5040773;28;20555;-68
2022/08/28 04:48:09;;;;;;;7.88;1.88;;;13.80;99.90;;;;;;5020916;28;20471;-68
2022/08/28 04:50:39;;;;;;;7.53;1.70;;;14.00;99.90;;;;;;5045532;28;20550;-68
2022/08/28 04:53:05;;;;;;;8.73;1.63;;;14.00;99.90;;;;;;5047890;28;20539;-68
2022/08/28 04:55:31;;;;;;;10.15;1.90;;;14.00;99.90;;;;;;5030328;28;20159;-68
2022/08/28 04:57:56;;;;;;;4.35;1.77;;;14.10;99.90;;;;;;5027029;28;20179;-68
2022/08/28 05:00:22;;;;;;;9.65;1.58;;;14.20;99.90;;;;;;5043792;28;20055;-68
2022/08/28 05:02:48;;;;;;;7.07;1.83;;;14.20;99.90;;;;;;5045257;28;20243;-68
2022/08/28 05:05:14;;;;;;;4.63;1.30;;;14.30;99.90;;;;;;5045719;28;20441;-68
2022/08/28 05:07:40;;;;;;;9.13;1.63;;;14.40;99.90;;;;;;5033469;28;20049;-68
2022/08/28 05:10:06;;;;;;;8.90;1.70;;;14.50;99.90;;;;;;5049151;28;20531;-68
2022/08/28 05:12:35;;;;;;;5.93;1.63;;;14.60;99.90;;;;;;5047424;28;20045;-68
2022/08/28 05:15:01;;;;;;;4.63;1.67;;;14.60;99.90;;;;;;5044358;28;20452;-68
2022/08/28 05:17:27;;;;;;;5.57;1.73;;;14.70;99.90;;;;;;5027718;28;20061;-68
2022/08/28 05:19:53;;;;;;;6.30;1.50;;;14.80;99.90;;;;;;5048397;28;20068;-68
2022/08/28 05:22:18;;;;;;;7.45;2.20;;;14.90;99.90;;;;;;5044074;28;20045;-68
2022/08/28 05:24:44;;;;;;;5.95;1.50;;;15.00;99.90;;;;;;5049561;28;20051;-68
2022/08/28 05:27:10;;;;;;;6.22;1.50;;;15.10;99.90;;;;;;5027806;28;20425;-67
2022/08/28 05:29:35;;;;;;;8.18;1.73;;;15.20;99.90;;;;;;5047712;28;20060;-68
2022/08/28 05:32:01;;;;;;;10.07;1.98;;;15.30;99.90;;;;;;5042283;28;20052;-68
2022/08/28 05:34:27;;;;;;;9.82;1.48;;;15.40;99.90;;;;;;5047814;28;20483;-69
2022/08/28 05:36:53;;;;;;;8.27;1.38;;;15.40;99.90;;;;;;5032276;28;20086;-68
2022/08/28 05:39:19;;;;;;;9.90;1.85;;;15.50;99.90;;;;;;5047039;28;20056;-68
2022/08/28 05:41:46;;;;;;;6.78;1.58;;;15.60;99.90;;;;;;5044730;28;20164;-68
2022/08/28 05:44:14;;;;;;;8.88;1.60;;;15.60;99.90;;;;;;5044356;28;20504;-68
2022/08/28 05:46:42;;;;;;;6.38;1.70;;;15.60;99.90;;;;;;5030572;28;20336;-69
2022/08/28 05:49:09;;;;;;;7.97;1.85;;;15.70;99.90;;;;;;5045328;28;20384;-68
2022/08/28 05:51:35;;;;;;;8.52;1.48;;;15.60;99.90;;;;;;5043991;28;20041;-68
2022/08/28 05:54:02;;;;;;;7.95;1.80;;;15.60;99.90;;;;;;5047077;28;20052;-70
2022/08/28 05:56:30;;;;;;;6.22;1.80;;;15.60;99.90;;;;;;5032915;28;20633;-68
2022/08/28 05:58:58;;;;;;;4.75;1.27;;;15.60;99.90;;;;;;5045541;28;20098;-69
2022/08/28 06:01:31;;;;;;;8.30;1.52;;;15.60;99.90;;;;;;5048144;28;20040;-69
2022/08/28 06:03:59;;;;;;;6.63;1.70;;;15.60;99.90;;;;;;5043072;28;20128;-68
2022/08/28 06:06:28;;;;;;;7.25;1.58;;;15.60;99.90;;;;;;5032305;28;20504;-69
2022/08/28 06:09:00;;;;;;;6.55;1.30;;;15.70;99.90;;;;;;5039095;28;20128;-68
2022/08/28 06:11:29;;;;;;;4.43;1.25;;;15.90;99.90;;;;;;5044807;28;20304;-68
2022/08/28 06:13:56;;;;;;;7.03;1.33;;;16.10;99.90;;;;;;5042878;28;20132;-69
2022/08/28 06:16:22;;;;;;;5.85;1.30;;;16.30;99.90;;;;;;5032576;28;20041;-69
2022/08/28 06:18:49;;;;;;;6.00;1.38;;;16.40;99.90;;;;;;5040339;28;20045;-68
2022/08/28 06:21:15;;;;;;;4.47;0.90;;;16.60;99.90;;;;;;5046579;28;20162;-69
2022/08/28 06:23:41;;;;;;;6.88;1.20;;;16.70;99.90;;;;;;5043300;28;20085;-69
2022/08/28 06:26:07;;;;;;;7.78;1.50;;;16.90;99.90;;;;;;5038494;28;20152;-72
2022/08/28 06:28:33;;;;;;;6.38;1.33;;;17.10;99.90;;;;;;5033233;28;20711;-69
2022/08/28 06:31:02;;;;;;;7.82;1.63;;;17.20;99.90;;;;;;5043971;28;20052;-69
2022/08/28 06:33:28;;;;;;;4.35;1.27;;;17.40;99.90;;;;;;5041497;28;20083;-69
2022/08/28 06:35:55;;;;;;;5.47;1.52;;;17.40;99.90;;;;;;5024874;28;20481;-69
2022/08/28 06:38:23;;;;;;;8.45;1.67;;;17.50;99.90;;;;;;5026784;28;20049;-69
2022/08/28 06:40:52;;;;;;;6.03;1.70;;;17.60;99.90;;;;;;5039226;28;20045;-69
2022/08/28 06:43:20;;;;;;;7.10;1.63;;;17.60;99.90;;;;;;5042403;28;20049;-70
2022/08/28 06:45:48;;;;;;;7.18;1.65;;;17.80;99.90;;;;;;5042876;28;20404;-69
2022/08/28 06:48:16;;;;;;;6.78;1.38;;;17.80;99.90;;;;;;5023123;28;20072;-72
2022/08/28 06:50:46;;;;;;;4.95;1.50;;;17.80;99.90;;;;;;5042745;28;20045;-72
2022/08/28 06:53:15;;;;;;;3.58;1.05;;;17.80;99.90;;;;;;5039461;28;20091;-69
2022/08/28 06:55:41;;;;;;;5.97;1.60;;;17.80;99.90;;;;;;5042796;28;20047;-69
2022/08/28 06:58:09;;;;;;;4.85;1.40;;;17.90;99.90;;;;;;5023943;28;20075;-71
2022/08/28 07:00:36;;;;;;;6.22;1.30;;;18.00;99.90;;;;;;5043815;28;20103;-71
2022/08/28 07:03:04;;;;;;;6.60;1.35;;;17.90;99.90;;;;;;5039326;28;20129;-72
2022/08/28 07:05:31;;;;;;;7.00;1.55;;;17.90;99.90;;;;;;5043249;28;20041;-69
2022/08/28 07:07:58;;;;;;;5.45;1.23;;;17.90;99.90;;;;;;5006533;28;20049;-70
2022/08/28 07:10:23;;;;;;;5.80;1.20;;;17.90;99.90;;;;;;5043590;28;20072;-70
2022/08/28 07:12:50;;;;;;;5.20;1.40;;;17.80;99.90;;;;;;5043041;28;20555;-69
2022/08/28 07:15:17;;;;;;;7.20;1.42;;;17.90;99.90;;;;;;5042122;28;20040;-69
2022/08/28 07:17:43;;;;;;;5.25;1.30;;;18.00;99.90;;;;;;5024097;28;20106;-68
2022/08/28 07:20:10;;;;;;;6.63;1.60;;;18.00;99.90;;;;;;5040129;28;20442;-69
2022/08/28 07:22:36;;;;;;;7.40;1.80;;;18.00;99.90;;;;;;5041081;28;20055;-70
2022/08/28 07:25:03;;;;;;;7.53;1.08;;;18.00;99.90;;;;;;5044442;28;20053;-69
2022/08/28 07:27:30;;;;;;;6.18;1.75;;;18.00;99.90;;;;;;4996696;28;20124;-68
2022/08/28 07:29:57;;;;;;;7.10;1.50;;;17.90;99.90;;;;;;5043207;28;20045;-68
2022/08/28 07:32:23;;;;;;;8.55;1.75;;;17.80;99.90;;;;;;5043999;28;20454;-69
2022/08/28 07:34:49;;;;;;;5.03;1.42;;;17.70;99.90;;;;;;5041854;28;20034;-71
2022/08/28 07:37:16;;;;;;;4.53;1.50;;;17.70;99.90;;;;;;5023135;28;20095;-68
2022/08/28 07:39:43;;;;;;;7.90;1.30;;;17.90;99.90;;;;;;5037744;28;20385;-69
2022/08/28 07:42:09;;;;;;;6.43;1.67;;;17.90;99.90;;;;;;5043932;28;20056;-68
2022/08/28 07:44:50;;;;;;;6.30;1.85;;;17.90;99.90;;;;;;5041771;28;20128;-69
2022/08/28 07:47:17;;;;;;;10.52;1.63;;;17.90;99.90;;;;;;5024101;28;20049;-71
2022/08/28 07:49:43;;;;;;;7.85;1.73;;;18.00;99.90;;;;;;5041379;28;20056;-69
2022/08/28 07:52:10;;;;;;;7.15;1.48;;;18.10;99.90;;;;;;5043611;28;20049;-70
2022/08/28 07:54:36;;;;;;;6.90;1.65;;;18.10;99.90;;;;;;5040296;28;20408;-72
2022/08/28 07:57:08;;;;;;;6.95;1.65;;;18.20;99.90;;;;;;5023588;28;20405;-68
2022/08/28 07:59:36;;;;;;;7.35;1.63;;;18.20;99.90;;;;;;5037489;28;20044;-70
2022/08/28 08:02:02;;;;;;;5.47;1.20;;;18.20;99.90;;;;;;5041464;28;20244;-68
2022/08/28 08:04:28;;;;;;;6.68;1.40;;;18.20;99.90;;;;;;5040964;28;20045;-68
2022/08/28 08:06:53;;;;;;;5.35;1.65;;;18.10;99.90;;;;;;5022336;28;20102;-69
2022/08/28 08:09:20;;;;;;;7.32;1.80;;;18.20;99.90;;;;;;5035539;28;20037;-69
2022/08/28 08:11:46;;;;;;;4.93;1.40;;;18.30;99.90;;;;;;5041097;28;20075;-70
2022/08/28 08:14:13;;;;;;;6.00;1.50;;;18.40;99.90;;;;;;5039797;28;20250;-70
2022/08/28 08:16:42;;;;;;;7.95;1.70;;;18.60;99.90;;;;;;5026288;28;20052;-70
2022/08/28 08:19:12;;;;;;;8.00;1.60;;;18.50;99.90;;;;;;5036851;28;20500;-68
2022/08/28 08:21:39;;;;;;;6.80;1.50;;;18.40;99.90;;;;;;5040248;28;20051;-70
2022/08/28 08:24:05;;;;;;;9.75;1.60;;;18.50;99.90;;;;;;5042754;28;20144;-69
2022/08/28 08:26:32;;;;;;;8.35;1.85;;;18.70;99.90;;;;;;5027962;28;20511;-69
2022/08/28 08:28:58;;;;;;;6.38;1.63;;;18.70;99.90;;;;;;5036373;28;20250;-72
2022/08/28 08:31:28;;;;;;;7.20;1.77;;;18.60;99.90;;;;;;5044926;28;20098;-67
2022/08/28 08:34:00;;;;;;;4.85;1.60;;;18.40;99.90;;;;;;5043880;28;20049;-69
2022/08/28 08:36:27;;;;;;;7.18;1.70;;;18.40;99.90;;;;;;5027819;28;20582;-69
2022/08/28 08:38:54;;;;;;;7.47;1.60;;;18.50;99.90;;;;;;5034882;28;20053;-70
2022/08/28 08:41:29;;;;;;;4.20;1.30;;;18.60;99.90;;;;;;5041829;28;20049;-71
2022/08/28 08:44:01;;;;;;;12.00;1.85;;;18.70;99.90;;;;;;5041608;28;20049;-71
2022/08/28 08:46:31;;;;;;;9.38;1.65;;;18.70;99.90;;;;;;5026493;28;20505;-70
2022/08/28 08:49:04;;;;;;;5.50;1.48;;;18.80;99.90;;;;;;5038849;28;20408;-70
2022/08/28 08:51:40;;;;;;;5.32;1.58;;;18.80;99.90;;;;;;5039015;28;20045;-70
2022/08/28 08:54:12;;;;;;;7.47;1.70;;;18.70;99.90;;;;;;5042101;28;20171;-71
2022/08/28 08:56:40;;;;;;;5.28;1.38;;;18.80;99.90;;;;;;5029218;28;20044;-71
2022/08/28 08:59:13;;;;;;;5.53;1.65;;;18.80;99.90;;;;;;5036865;28;20060;-72
2022/08/28 09:02:03;;;;;;;7.88;1.70;;;19.00;99.90;;;;;;5042883;28;20561;-71
2022/08/28 09:04:46;;;;;;;9.95;1.70;;;19.20;99.90;;;;;;5038287;28;20041;-71
2022/08/28 09:07:32;;;;;;;4.28;1.60;;;19.30;99.90;;;;;;5023184;28;20036;-70
2022/08/28 09:09:58;;;;;;;6.55;1.70;;;19.20;99.90;;;;;;5031866;28;20060;-71
2022/08/28 09:12:27;;;;;;;5.43;1.40;;;19.20;99.90;;;;;;5040121;28;20178;-71
2022/08/28 09:15:08;;;;;;;7.22;1.45;;;19.20;99.90;;;;;;5042247;28;20585;-71
2022/08/28 09:17:46;;;;;;;;;;;19.10;99.90;;;;;;5024125;28;20492;-71
2022/08/28 09:20:16;;;;;;;7.43;1.83;;;19.20;99.90;;;;;;5036313;28;19925;-70
2022/08/28 09:22:45;;;;;;;3.90;1.55;;;19.00;99.90;;;;;;5040086;28;20045;-72
2022/08/28 09:25:32;;;;;;;5.82;1.55;;;19.20;99.90;;;;;;5041651;28;20050;-71
2022/08/28 09:28:08;;;;;;;5.13;1.42;;;19.30;99.90;;;;;;5027226;28;20156;-70
2022/08/28 09:30:41;;;;;;;6.68;1.45;;;19.40;99.90;;;;;;5037859;28;20519;-70
2022/08/28 09:33:07;;;;;;;2.67;1.30;;;19.40;99.90;;;;;;5039782;28;20108;-70
2022/08/28 09:35:38;;;;;;;5.93;1.30;;;19.60;99.90;;;;;;5043166;28;20531;-70
2022/08/28 09:38:20;;;;;;;4.38;1.27;;;19.50;99.90;;;;;;5028040;28;20043;-69
2022/08/28 09:43:32;;;;;;;6.40;1.60;;;19.80;99.90;;;;;;5045755;28;20040;-70
2022/08/28 09:46:14;;;;;;;6.80;1.52;;;20.00;99.90;;;;;;5045534;28;20408;-70
2022/08/28 09:48:42;;;;;;;6.40;1.70;;;19.80;99.90;;;;;;5032094;28;20095;-71
2022/08/28 09:51:09;;;;;;;7.20;1.85;;;19.90;99.90;;;;;;5043601;28;20504;-72
2022/08/28 09:53:41;;;;;;;3.88;1.60;;;19.80;99.90;;;;;;5045763;28;20053;-70
2022/08/28 09:56:14;;;;;;;5.90;1.50;;;19.80;99.90;;;;;;5039644;28;20354;-72
2022/08/28 09:58:47;;;;;;;6.15;1.45;;;19.60;99.90;;;;;;5037637;28;20059;-70
2022/08/28 10:01:40;;;;;;;4.78;1.60;;;19.50;99.90;;;;;;5042123;28;20049;-71
2022/08/28 10:04:44;;;;;;;7.30;1.50;;;19.40;99.90;;;;;;5045136;28;20147;-69
2022/08/28 10:07:45;;;;;;;7.50;1.70;;;19.40;99.90;;;;;;5026745;28;20081;-70
2022/08/28 10:10:24;;;;;;;5.78;1.60;;;19.40;99.90;;;;;;5040724;28;20053;-69
2022/08/28 10:13:17;;;;;;;5.05;1.42;;;19.50;99.90;;;;;;5040603;28;20057;-71
2022/08/28 10:15:56;;;;;;;6.60;1.40;;;19.60;99.90;;;;;;5021630;28;20076;-70
2022/08/28 10:18:43;;;;;;;3.40;1.25;;;19.70;99.90;;;;;;5020420;28;20049;-70
2022/08/28 10:21:45;;;;;;;4.68;1.40;;;19.80;99.90;;;;;;5027871;28;20080;-70
2022/08/28 10:24:26;;;;;;;10.10;1.70;;;19.90;99.90;;;;;;5041541;28;20052;-68
2022/08/28 10:27:06;;;;;;;6.20;1.75;;;19.70;99.90;;;;;;5022718;28;20049;-70
2022/08/28 10:29:40;;;;;;;5.18;1.48;;;19.60;99.90;;;;;;5046419;28;20084;-71
2022/08/28 10:32:42;;;;;;;5.90;1.80;;;19.70;99.90;;;;;;5042251;28;20386;-72
2022/08/28 10:35:18;;;;;;;5.70;1.35;;;19.90;99.90;;;;;;5044847;28;20111;-70
2022/08/28 10:38:16;;;;;;;5.00;1.65;;;19.80;99.90;;;;;;5020945;28;20136;-69
2022/08/28 10:41:00;;;;;;;7.88;1.90;;;19.90;99.90;;;;;;5043834;28;20539;-69
2022/08/28 10:43:42;;;;;;;6.28;1.48;;;20.10;99.90;;;;;;5040787;28;20081;-71
2022/08/28 10:46:23;;;;;;;8.40;1.35;;;20.10;99.90;;;;;;5034582;28;20053;-74
2022/08/28 10:49:01;;;;;;;3.88;1.33;;;20.00;99.90;;;;;;5036698;28;20043;-70
2022/08/28 10:51:47;;;;;;;9.32;1.63;;;20.00;99.90;;;;;;5040646;28;20054;-70
2022/08/28 10:54:21;;;;;;;5.22;1.33;;;19.80;99.90;;;;;;5043163;28;20053;-70
2022/08/28 10:56:57;;;;;;;4.07;1.27;;;19.80;99.90;;;;;;5022362;28;20521;-70
2022/08/28 10:59:25;;;;;;;4.28;1.33;;;19.70;99.90;;;;;;5039218;28;20044;-69
2022/08/28 11:01:51;;;;;;;5.43;1.23;;;19.90;99.90;;;;;;5043603;28;20601;-71
2022/08/28 11:04:20;;;;;;;5.45;1.45;;;19.90;99.90;;;;;;5042032;28;20056;-69
2022/08/28 11:06:53;;;;;;;4.88;1.40;;;19.90;99.90;;;;;;5028725;28;20404;-71
2022/08/28 11:09:30;;;;;;;5.70;1.10;;;19.80;99.90;;;;;;5041365;28;20064;-71
2022/08/28 11:12:26;;;;;;;5.60;1.42;;;19.90;99.90;;;;;;5043137;28;20149;-69
2022/08/28 11:14:52;;;;;;;4.15;1.42;;;20.00;99.90;;;;;;5042755;28;20037;-69
2022/08/28 11:17:21;;;;;;;5.57;1.35;;;19.80;99.90;;;;;;5026724;28;20048;-73
2022/08/28 11:20:08;;;;;;;2.88;1.40;;;19.60;99.90;;;;;;5042525;28;20691;-71
2022/08/28 11:22:51;;;;;;;5.07;1.40;;;19.50;99.90;;;;;;5042744;28;20052;-69
2022/08/28 11:25:23;;;;;;;5.28;1.45;;;19.50;99.90;;;;;;5038727;28;20045;-68
2022/08/28 11:28:21;;;;;;;3.35;1.27;;;19.40;99.90;;;;;;5022143;28;20072;-70
2022/08/28 11:31:06;;;;;;;5.25;1.30;;;19.60;99.90;;;;;;5043240;28;20081;-71
2022/08/28 11:33:37;;;;;;;4.90;1.27;;;19.60;99.90;;;;;;5033722;28;20045;-70
2022/08/28 11:36:28;;;;;;;5.07;1.60;;;19.60;99.90;;;;;;5038173;28;20052;-70
2022/08/28 11:38:54;;;;;;;;;;;19.70;99.90;;;;;;5041094;28;20053;-70
2022/08/28 11:41:29;;;;;;;3.72;1.13;;;19.70;99.90;;;;;;5040384;28;20612;-71
2022/08/28 11:44:11;;;;;;;4.97;1.60;;;19.60;99.90;;;;;;5040477;28;20069;-69
2022/08/28 11:46:43;;;;;;;6.32;1.27;;;19.60;99.90;;;;;;5027453;28;20052;-72
2022/08/28 11:49:28;;;;;;;7.40;1.35;;;19.80;99.90;;;;;;5037111;28;20076;-71
2022/08/28 11:52:34;;;;;;;3.28;1.27;;;19.80;99.90;;;;;;5041460;28;20524;-69
2022/08/28 11:55:41;;;;;;;4.75;1.40;;;19.80;99.90;;;;;;5004418;28;20091;-70
2022/08/28 11:58:33;;;;;;;4.50;1.40;;;19.90;99.90;;;;;;4989452;28;20133;-70
2022/08/28 12:00:58;;;;;;;;;;;20.00;99.90;;;;;;5038884;28;20048;-69
2022/08/28 12:03:34;;;;;;;4.95;1.20;;;19.90;99.90;;;;;;5041180;28;19920;-70
2022/08/28 12:06:01;;;;;;;3.08;0.98;;;19.80;99.90;;;;;;5041898;28;20037;-71
2022/08/28 12:08:55;;;;;;;4.90;1.02;;;20.00;99.90;;;;;;5019395;28;20386;-70
2022/08/28 12:11:39;;;;;;;5.60;1.30;;;19.90;99.90;;;;;;5042405;28;20143;-70
2022/08/28 12:14:09;;;;;;;4.65;1.40;;;19.90;99.90;;;;;;5041750;28;20088;-69
2022/08/28 12:16:58;;;;;;;6.38;1.48;;;19.90;99.90;;;;;;5026555;28;20060;-72
2022/08/28 12:19:44;;;;;;;8.27;1.58;;;20.00;99.90;;;;;;5040278;28;20044;-70
2022/08/28 12:22:16;;;;;;;3.50;1.20;;;20.10;99.90;;;;;;5040093;28;20403;-70
2022/08/28 12:24:53;;;;;;;4.55;1.20;;;20.20;99.90;;;;;;5043648;28;20047;-71
2022/08/28 12:27:19;;;;;;;2.85;1.38;;;20.40;99.90;;;;;;5026392;28;20563;-71
2022/08/28 12:29:52;;;;;;;5.85;1.38;;;20.30;99.90;;;;;;5039900;28;20052;-71
2022/08/28 12:32:26;;;;;;;4.55;1.20;;;20.20;99.90;;;;;;5038244;28;20047;-70
2022/08/28 12:34:58;;;;;;;5.20;1.23;;;20.10;99.90;;;;;;5021536;28;20128;-70
2022/08/28 12:37:38;;;;;;;5.95;1.30;;;20.10;99.90;;;;;;5019537;28;20124;-70
2022/08/28 12:40:12;;;;;;;8.77;1.20;;;20.20;99.90;;;;;;5033724;28;20437;-70
2022/08/28 12:42:44;;;;;;;4.22;1.23;;;20.00;99.90;;;;;;5041258;28;20068;-70
2022/08/28 12:45:19;;;;;;;5.68;1.30;;;20.20;99.90;;;;;;5041312;28;20496;-70
2022/08/28 12:47:46;;;;;;;3.40;1.25;;;19.90;99.90;;;;;;5019995;28;20063;-71
2022/08/28 12:50:23;;;;;;;5.72;1.00;;;20.00;99.90;;;;;;5041735;28;20047;-70
2022/08/28 12:52:51;;;;;;;6.38;1.08;;;20.00;99.90;;;;;;5038470;28;20209;-71
2022/08/28 12:55:18;;;;;;;7.18;1.10;;;20.20;99.90;;;;;;5039826;28;20036;-69
2022/08/28 12:57:46;;;;;;;3.58;0.90;;;20.20;99.90;;;;;;5018947;28;20124;-71
2022/08/28 13:00:17;;;;;;;7.25;1.13;;;20.20;99.90;;;;;;5039941;28;20412;-69
2022/08/28 13:02:43;;;;;;;5.93;0.93;;;20.40;99.90;;;;;;5040696;28;20037;-70
2022/08/28 13:05:21;;;;;;;4.32;1.00;;;20.50;99.90;;;;;;5041269;28;20045;-69
2022/08/28 13:07:50;;;;;;;2.33;0.73;;;20.50;99.90;;;;;;5020699;28;20083;-68
2022/08/28 13:10:24;;;;;;;6.00;1.08;;;20.50;99.90;;;;;;5041709;28;20081;-70
2022/08/28 13:12:54;;;;;;;5.03;0.85;;;20.30;99.90;;;;;;5037408;28;20077;-69
2022/08/28 13:15:49;;;;;;;3.25;0.80;;;20.20;99.90;;;;;;5043027;28;20120;-70